Time;durP1;ratioP1;P1;durP2;ratioP2;P2;SDS_P1;SDS_P2;PMS_P1;PMS_P2;Temp;Humidity;BMP_temperature;BMP_pressure;BME280_temperature;BME280_humidity;BME280_pressure;Samples;Min_cycle;Max_cycle;Signal;HPM_P1;HPM_P2
2021/01/20 00:00:04;;;;;;;7.63;3.63;;;12.40;69.20;;;;;;2098806;28;20369;-78
2021/01/20 00:01:06;;;;;;;6.03;3.47;;;12.70;69.70;;;;;;2099347;28;20063;-77
2021/01/20 00:02:08;;;;;;;6.15;3.30;;;12.50;69.30;;;;;;2098588;28;20089;-77
2021/01/20 00:03:10;;;;;;;6.72;3.85;;;12.30;69.60;;;;;;2098876;28;20597;-76
2021/01/20 00:04:13;;;;;;;6.13;3.00;;;12.10;70.30;;;;;;2097815;28;20052;-77
2021/01/20 00:05:16;;;;;;;5.85;3.00;;;12.40;71.10;;;;;;2097405;28;20040;-76
2021/01/20 00:06:17;;;;;;;5.40;2.88;;;12.70;69.50;;;;;;2098430;28;20477;-78
2021/01/20 00:07:22;;;;;;;9.98;4.05;;;12.70;68.70;;;;;;2099292;28;20048;-78
2021/01/20 00:08:23;;;;;;;5.03;3.15;;;12.70;67.90;;;;;;2107614;28;20443;-78
2021/01/20 00:09:25;;;;;;;5.75;3.72;;;12.40;69.60;;;;;;2098983;28;20044;-78
2021/01/20 00:10:27;;;;;;;7.15;3.92;;;12.30;69.40;;;;;;2099337;28;20048;-77
2021/01/20 00:11:29;;;;;;;8.60;3.92;;;12.20;70.40;;;;;;2107055;28;20048;-78
2021/01/20 00:12:31;;;;;;;6.75;3.55;;;12.40;70.30;;;;;;2099317;28;20489;-77
2021/01/20 00:13:33;;;;;;;8.98;4.38;;;12.40;69.10;;;;;;2098927;28;20432;-78
2021/01/20 00:14:35;;;;;;;8.02;3.30;;;12.30;69.00;;;;;;2098911;28;20057;-78
2021/01/20 00:15:37;;;;;;;;;;;12.10;69.50;;;;;;2099714;28;20045;-78
2021/01/20 00:16:39;;;;;;;6.40;2.90;;;11.70;70.30;;;;;;2107114;28;19921;-78
2021/01/20 00:17:40;;;;;;;7.72;3.83;;;12.00;71.20;;;;;;2099273;28;20653;-78
2021/01/20 00:18:42;;;;;;;;;;;11.70;73.30;;;;;;2099637;28;20071;-78
2021/01/20 00:19:44;;;;;;;6.95;3.30;;;11.90;71.60;;;;;;2107142;28;20300;-78
2021/01/20 00:20:48;;;;;;;7.75;3.47;;;11.80;71.50;;;;;;2098983;28;20539;-78
2021/01/20 00:21:50;;;;;;;6.07;2.92;;;11.60;71.70;;;;;;2099316;28;20056;-77
2021/01/20 00:22:54;;;;;;;7.38;3.95;;;11.70;72.10;;;;;;2098583;28;20452;-78
2021/01/20 00:23:55;;;;;;;9.48;3.55;;;11.80;71.60;;;;;;2099261;28;20361;-78
2021/01/20 00:24:57;;;;;;;6.28;3.50;;;11.60;71.10;;;;;;2098642;28;20106;-77
2021/01/20 00:25:59;;;;;;;;;;;11.40;71.60;;;;;;2099484;28;20060;-78
2021/01/20 00:27:00;;;;;;;8.50;3.42;;;11.50;71.70;;;;;;2106819;28;19962;-78
2021/01/20 00:28:02;;;;;;;5.93;3.08;;;11.80;70.90;;;;;;2099253;28;20052;-77
2021/01/20 00:29:04;;;;;;;12.43;3.47;;;11.60;72.40;;;;;;2099700;28;20044;-78
2021/01/20 00:30:07;;;;;;;7.88;3.75;;;11.70;71.50;;;;;;2100019;28;20045;-76
2021/01/20 00:31:11;;;;;;;7.75;3.72;;;11.50;70.50;;;;;;2100431;28;20048;-75
2021/01/20 00:32:13;;;;;;;7.60;3.63;;;11.80;72.80;;;;;;2100171;28;20049;-78
2021/01/20 00:33:15;;;;;;;7.20;3.60;;;11.80;70.80;;;;;;2100616;28;20066;-78
2021/01/20 00:34:19;;;;;;;6.78;2.97;;;11.90;70.90;;;;;;2100331;28;20072;-78
2021/01/20 00:35:21;;;;;;;6.80;3.40;;;12.10;71.10;;;;;;2100672;28;20053;-78
2021/01/20 00:36:24;;;;;;;7.15;3.53;;;12.10;70.20;;;;;;2100762;28;20051;-78
2021/01/20 00:37:26;;;;;;;7.60;3.83;;;12.00;69.80;;;;;;2108059;28;20434;-76
2021/01/20 00:38:27;;;;;;;5.93;3.45;;;12.00;70.20;;;;;;2100719;28;20041;-78
2021/01/20 00:39:29;;;;;;;2.75;2.20;;;12.20;69.60;;;;;;2100825;28;20048;-77
2021/01/20 00:40:31;;;;;;;7.30;3.47;;;12.60;70.40;;;;;;2100088;28;20291;-77
2021/01/20 00:41:33;;;;;;;5.32;3.05;;;12.50;69.50;;;;;;2100013;28;20052;-77
2021/01/20 00:42:34;;;;;;;7.63;3.28;;;12.50;67.60;;;;;;2100335;28;20052;-78
2021/01/20 00:43:36;;;;;;;6.63;3.30;;;12.30;69.30;;;;;;2099218;28;20056;-78
2021/01/20 00:44:39;;;;;;;6.90;3.30;;;12.50;67.60;;;;;;2099481;28;20049;-78
2021/01/20 00:45:42;;;;;;;8.27;3.83;;;12.10;69.00;;;;;;2098739;28;20079;-78
2021/01/20 00:46:44;;;;;;;5.25;3.10;;;12.00;69.00;;;;;;2098687;28;20114;-78
2021/01/20 00:47:46;;;;;;;8.88;4.00;;;12.40;69.70;;;;;;2098761;28;20056;-77
2021/01/20 00:48:48;;;;;;;5.13;3.35;;;12.10;69.70;;;;;;2099072;28;20049;-78
2021/01/20 00:49:50;;;;;;;5.15;3.55;;;12.50;69.60;;;;;;2098558;28;20091;-77
2021/01/20 00:50:53;;;;;;;7.57;3.47;;;12.30;67.00;;;;;;2090438;28;20049;-78
2021/01/20 00:51:56;;;;;;;10.30;4.10;;;12.30;68.50;;;;;;2090582;28;20103;-77
2021/01/20 00:52:58;;;;;;;6.85;3.90;;;12.20;67.80;;;;;;2090230;28;20398;-77
2021/01/20 00:54:00;;;;;;;6.03;3.50;;;12.30;67.90;;;;;;2090691;28;20052;-77
2021/01/20 00:55:03;;;;;;;6.18;3.30;;;12.20;69.60;;;;;;2098532;28;20056;-77
2021/01/20 00:56:06;;;;;;;7.53;3.80;;;12.30;67.80;;;;;;2098442;28;20049;-78
2021/01/20 00:57:08;;;;;;;8.88;4.05;;;12.30;67.30;;;;;;2090671;28;20053;-77
2021/01/20 00:58:10;;;;;;;5.57;3.35;;;12.40;67.70;;;;;;2090168;28;20048;-78
2021/01/20 00:59:13;;;;;;;4.93;2.97;;;12.40;67.30;;;;;;2090828;28;20059;-78
2021/01/20 01:00:16;;;;;;;6.60;3.75;;;12.50;68.20;;;;;;2090791;28;20045;-78
2021/01/20 01:01:18;;;;;;;3.25;2.42;;;12.20;66.50;;;;;;2090525;28;20049;-78
2021/01/20 01:02:20;;;;;;;6.45;3.50;;;12.30;68.20;;;;;;2098462;28;20060;-78
2021/01/20 01:03:22;;;;;;;6.43;3.38;;;12.30;67.30;;;;;;2098239;28;20124;-78
2021/01/20 01:04:24;;;;;;;;;;;12.20;69.00;;;;;;2090653;28;20063;-77
2021/01/20 01:05:26;;;;;;;5.40;3.40;;;12.30;67.90;;;;;;2098341;28;19920;-78
2021/01/20 01:06:27;;;;;;;;;;;12.20;67.00;;;;;;2107076;28;20424;-78
2021/01/20 01:07:30;;;;;;;5.93;2.90;;;11.90;67.70;;;;;;2098286;28;20343;-78
2021/01/20 01:08:32;;;;;;;7.10;3.47;;;12.00;68.20;;;;;;2098263;28;20044;-79
2021/01/20 01:09:36;;;;;;;5.97;3.08;;;12.00;67.90;;;;;;2089935;28;20056;-78
2021/01/20 01:10:38;;;;;;;6.45;3.30;;;11.90;68.10;;;;;;2098133;28;20414;-77
2021/01/20 01:11:40;;;;;;;7.38;3.60;;;11.70;68.10;;;;;;2098695;28;20045;-77
2021/01/20 01:12:42;;;;;;;6.13;3.00;;;11.60;68.40;;;;;;2098185;28;20053;-78
2021/01/20 01:13:43;;;;;;;5.93;2.60;;;11.80;71.40;;;;;;2090154;28;20052;-77
2021/01/20 01:14:45;;;;;;;6.07;3.60;;;12.20;69.30;;;;;;2098185;28;20640;-78
2021/01/20 01:15:47;;;;;;;11.35;3.78;;;12.20;67.00;;;;;;2098362;28;20055;-76
2021/01/20 01:16:49;;;;;;;;;;;12.20;66.60;;;;;;2090377;28;20041;-76
2021/01/20 01:17:51;;;;;;;6.78;2.85;;;12.10;68.10;;;;;;2098193;28;19921;-78
2021/01/20 01:18:52;;;;;;;6.85;3.28;;;12.10;70.30;;;;;;2097617;28;20416;-77
2021/01/20 01:19:54;;;;;;;8.40;3.53;;;12.40;69.30;;;;;;2097824;28;20534;-78
2021/01/20 01:20:56;;;;;;;6.97;3.50;;;12.50;66.50;;;;;;2090340;28;20116;-77
2021/01/20 01:21:58;;;;;;;7.82;3.35;;;12.10;66.60;;;;;;2089846;28;20374;-78
2021/01/20 01:23:00;;;;;;;5.10;2.97;;;12.30;66.40;;;;;;2098061;28;20048;-76
2021/01/20 01:24:02;;;;;;;3.88;2.33;;;12.40;68.00;;;;;;2097763;28;20048;-78
2021/01/20 01:25:05;;;;;;;8.00;3.17;;;12.40;68.50;;;;;;2097913;28;20041;-77
2021/01/20 01:26:07;;;;;;;5.80;3.00;;;12.50;68.40;;;;;;2098575;28;20481;-76
2021/01/20 01:27:09;;;;;;;8.00;3.00;;;12.40;65.20;;;;;;2098825;28;20399;-77
2021/01/20 01:28:11;;;;;;;7.43;3.47;;;12.40;67.10;;;;;;2097992;28;20063;-77
2021/01/20 01:29:13;;;;;;;5.22;2.95;;;12.00;66.20;;;;;;2090141;28;20169;-78
2021/01/20 01:30:16;;;;;;;6.72;2.67;;;12.10;67.90;;;;;;2090030;28;20574;-78
2021/01/20 01:31:17;;;;;;;7.78;3.10;;;12.50;68.40;;;;;;2090201;28;20037;-76
2021/01/20 01:32:20;;;;;;;4.90;2.30;;;12.40;65.80;;;;;;2098035;28;20132;-77
2021/01/20 01:33:21;;;;;;;;;;;12.40;69.30;;;;;;2098441;28;20148;-78
2021/01/20 01:34:23;;;;;;;5.10;2.85;;;12.60;67.70;;;;;;2098033;28;20458;-79
2021/01/20 01:35:25;;;;;;;6.65;3.20;;;12.60;65.80;;;;;;2098438;28;20053;-77
2021/01/20 01:36:27;;;;;;;7.20;3.50;;;12.20;66.20;;;;;;2098411;28;20440;-77
2021/01/20 01:37:28;;;;;;;6.63;3.55;;;11.90;66.50;;;;;;2098239;28;20496;-77
2021/01/20 01:38:31;;;;;;;5.35;3.03;;;11.90;65.60;;;;;;2097968;28;20075;-77
2021/01/20 01:39:34;;;;;;;9.23;3.60;;;12.30;67.50;;;;;;2098107;28;20047;-78
2021/01/20 01:40:36;;;;;;;6.40;3.00;;;12.10;66.60;;;;;;2098011;28;20049;-78
2021/01/20 01:41:38;;;;;;;5.60;3.22;;;12.10;67.40;;;;;;2106329;28;20400;-77
2021/01/20 01:42:40;;;;;;;5.18;2.65;;;12.20;68.60;;;;;;2098147;28;20045;-76
2021/01/20 01:43:41;;;;;;;4.43;2.65;;;12.70;68.60;;;;;;2097795;28;20404;-78
2021/01/20 01:44:43;;;;;;;4.85;2.97;;;12.60;65.80;;;;;;2107019;28;20048;-76
2021/01/20 01:45:45;;;;;;;5.85;2.85;;;12.50;66.20;;;;;;2107992;28;20112;-77
2021/01/20 01:46:47;;;;;;;7.28;2.78;;;12.50;68.30;;;;;;2107986;28;20377;-77
2021/01/20 01:47:49;;;;;;;5.25;2.80;;;12.60;65.50;;;;;;2099701;28;20044;-78
2021/01/20 01:48:52;;;;;;;;;;;12.80;66.70;;;;;;2100869;28;20105;-77
2021/01/20 01:49:56;;;;;;;4.68;3.03;;;13.00;66.50;;;;;;2110573;28;19919;-76
2021/01/20 01:50:57;;;;;;;6.10;2.90;;;12.70;65.00;;;;;;2102127;28;20040;-78
2021/01/20 01:52:01;;;;;;;7.30;3.53;;;12.70;67.50;;;;;;2101469;28;20052;-76
2021/01/20 01:53:03;;;;;;;4.18;2.53;;;13.10;66.80;;;;;;2101491;28;20436;-77
2021/01/20 01:54:08;;;;;;;5.13;2.53;;;13.10;65.60;;;;;;2101395;28;20055;-76
2021/01/20 01:55:11;;;;;;;5.45;2.55;;;12.90;67.60;;;;;;2103104;28;20045;-79
2021/01/20 01:56:13;;;;;;;5.85;2.88;;;13.00;65.80;;;;;;2101397;28;20565;-78
2021/01/20 01:57:15;;;;;;;5.22;2.97;;;13.10;66.60;;;;;;2093311;28;20053;-77
2021/01/20 01:58:17;;;;;;;7.40;3.20;;;13.10;65.20;;;;;;2101314;28;20041;-77
2021/01/20 01:59:19;;;;;;;6.15;2.88;;;12.90;64.70;;;;;;2101062;28;20056;-76
2021/01/20 02:00:20;;;;;;;5.03;2.85;;;12.70;65.50;;;;;;2092180;28;20052;-76
2021/01/20 02:01:23;;;;;;;5.53;2.72;;;12.70;65.30;;;;;;2090144;28;20216;-78
2021/01/20 02:02:28;;;;;;;5.72;2.95;;;12.80;64.80;;;;;;2090393;28;20474;-77
2021/01/20 02:03:30;;;;;;;7.13;3.53;;;12.70;66.40;;;;;;2091326;28;20049;-80
2021/01/20 02:04:31;;;;;;;6.00;2.92;;;12.50;65.30;;;;;;2090196;28;20164;-77
2021/01/20 02:05:33;;;;;;;4.07;2.50;;;12.50;68.00;;;;;;2090284;28;20055;-77
2021/01/20 02:06:36;;;;;;;4.10;2.40;;;12.80;66.60;;;;;;2098481;28;20075;-78
2021/01/20 02:07:38;;;;;;;4.47;2.80;;;13.00;66.20;;;;;;2097892;28;20045;-77
2021/01/20 02:08:42;;;;;;;4.13;2.53;;;12.70;65.90;;;;;;2090377;28;20056;-78
2021/01/20 02:09:45;;;;;;;5.30;2.95;;;12.60;67.40;;;;;;2090596;28;20045;-76
2021/01/20 02:10:51;;;;;;;5.97;3.45;;;12.80;66.00;;;;;;2090405;28;20056;-76
2021/01/20 02:12:10;;;;;;;6.80;3.13;;;12.90;66.60;;;;;;2091369;28;20044;-77
2021/01/20 02:13:30;;;;;;;6.22;3.60;;;13.10;63.80;;;;;;2092598;28;20116;-75
2021/01/20 02:14:42;;;;;;;4.43;3.17;;;12.60;65.40;;;;;;2092455;28;20045;-78
2021/01/20 02:15:55;;;;;;;4.53;2.85;;;12.30;64.20;;;;;;2091288;28;20489;-77
2021/01/20 02:17:09;;;;;;;5.10;2.60;;;12.30;65.80;;;;;;2097869;28;20052;-77
2021/01/20 02:18:14;;;;;;;5.72;2.45;;;12.50;66.50;;;;;;2099134;28;20068;-76
2021/01/20 02:19:28;;;;;;;5.55;2.53;;;12.60;67.90;;;;;;2097857;28;20070;-77
2021/01/20 02:21:22;;;;;;;5.05;2.55;;;12.90;67.00;;;;;;2097884;28;20052;-78
2021/01/20 02:22:27;;;;;;;9.30;3.20;;;13.10;67.00;;;;;;2097964;28;20524;-78
2021/01/20 02:23:31;;;;;;;8.27;3.50;;;12.80;66.10;;;;;;2097672;28;20048;-77
2021/01/20 02:24:41;;;;;;;5.30;3.03;;;12.60;63.50;;;;;;2089603;28;20485;-77
2021/01/20 02:26:09;;;;;;;7.65;3.00;;;12.60;64.90;;;;;;2090773;28;20049;-78
2021/01/20 02:27:21;;;;;;;4.93;2.70;;;12.50;65.30;;;;;;2097831;28;20412;-78
2021/01/20 02:28:32;;;;;;;3.42;2.53;;;12.50;68.20;;;;;;2097573;28;20048;-77
2021/01/20 02:29:44;;;;;;;4.10;2.53;;;11.50;66.10;;;;;;2090734;28;20056;-78
2021/01/20 02:30:49;;;;;;;4.50;2.40;;;12.70;66.00;;;;;;2090502;28;20052;-77
2021/01/20 02:31:51;;;;;;;3.22;2.20;;;12.70;67.90;;;;;;2089751;28;20587;-77
2021/01/20 02:32:55;;;;;;;6.65;2.92;;;13.10;68.10;;;;;;2089417;28;20056;-76
2021/01/20 02:34:01;;;;;;;4.32;2.80;;;13.00;66.50;;;;;;2097789;28;20049;-77
2021/01/20 02:35:05;;;;;;;7.18;3.42;;;13.20;66.60;;;;;;2090133;28;20590;-77
2021/01/20 02:36:07;;;;;;;5.13;2.88;;;13.10;62.60;;;;;;2097492;28;20202;-77
2021/01/20 02:37:10;;;;;;;4.47;2.78;;;12.80;62.50;;;;;;2097744;28;20055;-77
2021/01/20 02:38:13;;;;;;;4.07;2.25;;;12.60;65.00;;;;;;2089350;28;20429;-77
2021/01/20 02:39:16;;;;;;;5.50;2.70;;;12.70;68.10;;;;;;2097571;28;20045;-78
2021/01/20 02:40:19;;;;;;;4.47;2.85;;;12.70;66.40;;;;;;2106159;28;20052;-76
2021/01/20 02:41:26;;;;;;;5.40;2.88;;;12.60;65.10;;;;;;2097437;28;20045;-78
2021/01/20 02:42:28;;;;;;;4.88;2.83;;;12.50;64.90;;;;;;2097701;28;20040;-78
2021/01/20 02:43:30;;;;;;;6.78;3.40;;;12.70;66.60;;;;;;2097538;28;20085;-78
2021/01/20 02:44:35;;;;;;;6.45;3.17;;;12.20;64.60;;;;;;2097842;28;20041;-77
2021/01/20 02:45:37;;;;;;;3.15;2.30;;;12.00;65.50;;;;;;2089836;28;20048;-78
2021/01/20 02:46:41;;;;;;;5.93;2.75;;;12.20;66.60;;;;;;2097461;28;20582;-76
2021/01/20 02:47:46;;;;;;;5.00;2.75;;;12.30;65.60;;;;;;2097828;28;20477;-76
2021/01/20 02:48:49;;;;;;;7.25;2.50;;;12.10;64.90;;;;;;2098083;28;20210;-77
2021/01/20 02:49:52;;;;;;;3.90;2.75;;;12.10;67.80;;;;;;2097749;28;20048;-78
2021/01/20 02:50:55;;;;;;;2.58;1.95;;;12.50;67.40;;;;;;2097299;28;20048;-78
2021/01/20 02:52:04;;;;;;;5.95;3.03;;;13.00;67.00;;;;;;2097573;28;20048;-77
2021/01/20 02:53:09;;;;;;;5.43;3.03;;;12.90;63.60;;;;;;2090292;28;20052;-77
2021/01/20 02:54:13;;;;;;;4.13;2.90;;;12.60;63.70;;;;;;2089898;28;20053;-78
2021/01/20 02:55:18;;;;;;;5.15;2.47;;;12.50;62.60;;;;;;2089689;28;20110;-78
2021/01/20 02:56:23;;;;;;;4.68;2.97;;;12.60;65.10;;;;;;2097374;28;20226;-77
2021/01/20 02:57:28;;;;;;;6.30;3.00;;;12.40;63.80;;;;;;2098219;28;20051;-77
2021/01/20 02:58:35;;;;;;;6.20;3.20;;;12.40;64.60;;;;;;2098028;28;20140;-76
2021/01/20 02:59:38;;;;;;;4.47;2.47;;;12.40;64.20;;;;;;2097249;28;20060;-78
2021/01/20 03:00:41;;;;;;;5.78;3.00;;;12.90;65.80;;;;;;2089653;28;20115;-78
2021/01/20 03:01:48;;;;;;;6.32;3.15;;;12.50;63.20;;;;;;2097382;28;20052;-77
2021/01/20 03:02:54;;;;;;;4.10;2.80;;;12.40;64.00;;;;;;2098985;28;20266;-76
2021/01/20 03:03:58;;;;;;;4.43;2.70;;;12.00;65.00;;;;;;2091368;28;20468;-77
2021/01/20 03:05:01;;;;;;;5.50;2.70;;;11.90;66.20;;;;;;2091293;28;20052;-77
2021/01/20 03:06:04;;;;;;;4.60;2.83;;;12.00;67.10;;;;;;2098755;28;20067;-77
2021/01/20 03:07:06;;;;;;;5.63;2.78;;;11.80;67.40;;;;;;2099501;28;20051;-78
2021/01/20 03:08:08;;;;;;;;;;;12.10;67.50;;;;;;2099155;28;20523;-78
2021/01/20 03:09:11;;;;;;;5.75;2.55;;;12.50;66.00;;;;;;2090807;28;19921;-76
2021/01/20 03:10:14;;;;;;;4.57;2.58;;;12.30;67.30;;;;;;2090886;28;20052;-77
2021/01/20 03:11:16;;;;;;;5.93;2.58;;;12.60;65.50;;;;;;2099140;28;20048;-78
2021/01/20 03:12:23;;;;;;;5.63;3.08;;;12.40;66.20;;;;;;2098990;28;20048;-77
2021/01/20 03:13:24;;;;;;;5.28;2.80;;;12.20;64.50;;;;;;2091625;28;20243;-77
2021/01/20 03:14:27;;;;;;;5.40;3.17;;;12.10;66.20;;;;;;2090620;28;20431;-78
2021/01/20 03:15:35;;;;;;;6.78;3.20;;;12.10;66.30;;;;;;2090975;28;20057;-77
2021/01/20 03:16:37;;;;;;;5.10;2.90;;;12.00;65.70;;;;;;2090186;28;20053;-78
2021/01/20 03:17:41;;;;;;;4.85;2.65;;;12.00;66.30;;;;;;2097348;28;20044;-77
2021/01/20 03:18:43;;;;;;;5.05;2.75;;;11.60;65.50;;;;;;2097486;28;20506;-77
2021/01/20 03:19:44;;;;;;;6.35;2.90;;;11.60;67.30;;;;;;2097084;28;20048;-76
2021/01/20 03:20:46;;;;;;;5.22;2.58;;;11.80;68.80;;;;;;2097179;28;20048;-77
2021/01/20 03:21:48;;;;;;;3.88;2.38;;;12.30;67.60;;;;;;2097209;28;20056;-76
2021/01/20 03:22:49;;;;;;;5.55;2.53;;;12.30;65.80;;;;;;2097347;28;20044;-76
2021/01/20 03:23:51;;;;;;;6.53;3.28;;;11.70;64.40;;;;;;2097061;28;20508;-77
2021/01/20 03:24:53;;;;;;;3.25;2.15;;;11.70;66.10;;;;;;2089018;28;20366;-76
2021/01/20 03:25:56;;;;;;;4.50;2.55;;;11.90;66.60;;;;;;2089074;28;20048;-76
2021/01/20 03:26:58;;;;;;;6.22;2.65;;;12.00;67.90;;;;;;2089298;28;20053;-76
2021/01/20 03:28:00;;;;;;;4.30;2.50;;;12.20;69.30;;;;;;2089277;28;20072;-76
2021/01/20 03:29:02;;;;;;;5.75;3.65;;;12.30;65.00;;;;;;2089264;28;20048;-76
2021/01/20 03:30:04;;;;;;;;;;;12.00;65.10;;;;;;2089780;28;20459;-77
2021/01/20 03:31:06;;;;;;;6.53;2.88;;;12.10;65.30;;;;;;2089391;28;19921;-77
2021/01/20 03:32:07;;;;;;;4.82;2.88;;;11.80;64.10;;;;;;2097796;28;20051;-77
2021/01/20 03:33:10;;;;;;;5.35;2.38;;;11.90;67.10;;;;;;2092999;28;20493;-77
2021/01/20 03:34:12;;;;;;;4.68;2.80;;;12.10;66.30;;;;;;2092495;28;20060;-79
2021/01/20 03:35:14;;;;;;;5.95;3.03;;;12.10;66.60;;;;;;2089057;28;20048;-77
2021/01/20 03:36:16;;;;;;;4.35;2.58;;;12.00;64.10;;;;;;2097009;28;20046;-76
2021/01/20 03:37:18;;;;;;;5.40;2.25;;;11.80;65.10;;;;;;2096829;28;20040;-78
2021/01/20 03:38:19;;;;;;;4.53;2.65;;;12.00;68.20;;;;;;2088567;28;20053;-78
2021/01/20 03:39:21;;;;;;;4.45;2.25;;;12.30;66.20;;;;;;2097055;28;20052;-77
2021/01/20 03:40:24;;;;;;;5.53;2.72;;;12.40;66.10;;;;;;2097013;28;20036;-78
2021/01/20 03:41:25;;;;;;;7.03;2.38;;;12.40;65.30;;;;;;2096417;28;20044;-78
2021/01/20 03:42:30;;;;;;;3.08;2.10;;;12.60;66.80;;;;;;2088465;28;20106;-77
2021/01/20 03:43:32;;;;;;;5.65;2.65;;;12.70;67.00;;;;;;2096779;28;20067;-78
2021/01/20 03:44:33;;;;;;;;;;;12.40;62.30;;;;;;2097301;28;20261;-77
2021/01/20 03:45:35;;;;;;;5.85;2.53;;;12.40;65.20;;;;;;2096914;28;19982;-77
2021/01/20 03:46:37;;;;;;;5.43;3.08;;;12.20;66.10;;;;;;2096624;28;20472;-76
2021/01/20 03:47:39;;;;;;;3.45;2.22;;;12.20;63.70;;;;;;2096764;28;20142;-77
2021/01/20 03:48:41;;;;;;;;;;;12.50;66.20;;;;;;2089381;28;20243;-78
2021/01/20 03:49:43;;;;;;;5.80;2.60;;;12.60;66.30;;;;;;2096636;28;20253;-76
2021/01/20 03:50:45;;;;;;;4.70;2.47;;;12.70;66.10;;;;;;2096839;28;20051;-76
2021/01/20 03:51:46;;;;;;;3.92;2.38;;;12.70;61.90;;;;;;2096886;28;20057;-78
2021/01/20 03:52:48;;;;;;;4.68;2.85;;;12.60;64.10;;;;;;2088681;28;20456;-76
2021/01/20 03:53:50;;;;;;;4.95;2.70;;;12.60;63.70;;;;;;2088643;28;20053;-78
2021/01/20 03:54:51;;;;;;;4.05;2.38;;;12.70;62.90;;;;;;2089010;28;20053;-77
2021/01/20 03:55:53;;;;;;;4.25;2.28;;;12.90;65.10;;;;;;2097014;28;20074;-76
2021/01/20 03:56:55;;;;;;;3.97;2.40;;;13.00;63.70;;;;;;2097720;28;20044;-78
2021/01/20 03:57:57;;;;;;;4.00;2.25;;;13.00;64.20;;;;;;2097073;28;20113;-78
2021/01/20 03:58:59;;;;;;;3.13;2.33;;;12.70;62.30;;;;;;2096916;28;20048;-76
2021/01/20 04:00:01;;;;;;;4.13;2.50;;;13.20;63.40;;;;;;2097122;28;20052;-77
2021/01/20 04:01:02;;;;;;;4.60;2.70;;;13.20;62.90;;;;;;2097831;28;20067;-76
2021/01/20 04:02:05;;;;;;;4.57;3.00;;;12.90;61.10;;;;;;2097721;28;20045;-77
2021/01/20 04:03:07;;;;;;;3.50;2.47;;;13.00;61.20;;;;;;2097777;28;20041;-75
2021/01/20 04:04:10;;;;;;;5.30;2.38;;;12.80;64.00;;;;;;2097218;28;20521;-76
2021/01/20 04:05:13;;;;;;;5.85;2.20;;;12.80;62.50;;;;;;2097207;28;20488;-78
2021/01/20 04:06:14;;;;;;;3.25;1.77;;;12.60;64.60;;;;;;2097020;28;20041;-78
2021/01/20 04:07:16;;;;;;;3.90;2.40;;;13.00;64.70;;;;;;2089177;28;20041;-77
2021/01/20 04:08:18;;;;;;;4.28;2.55;;;13.00;61.50;;;;;;2088951;28;20118;-78
2021/01/20 04:09:19;;;;;;;4.00;2.63;;;12.80;62.60;;;;;;2097465;28;20140;-78
2021/01/20 04:10:21;;;;;;;6.97;2.90;;;12.30;61.40;;;;;;2097832;28;20048;-78
2021/01/20 04:11:23;;;;;;;3.92;2.50;;;12.20;62.20;;;;;;2097504;28;20134;-77
2021/01/20 04:12:26;;;;;;;6.65;3.05;;;11.80;62.20;;;;;;2097763;28;20040;-78
2021/01/20 04:13:28;;;;;;;4.10;2.75;;;11.80;64.30;;;;;;2097858;28;20497;-77
2021/01/20 04:14:30;;;;;;;5.32;2.58;;;11.50;65.00;;;;;;2098157;28;20493;-76
2021/01/20 04:15:31;;;;;;;;;;;11.90;64.60;;;;;;2099425;28;20045;-78
2021/01/20 04:16:33;;;;;;;7.43;3.35;;;12.20;66.60;;;;;;2098899;28;19928;-78
2021/01/20 04:17:36;;;;;;;7.30;4.05;;;12.30;63.50;;;;;;2107483;28;20048;-78
2021/01/20 04:18:38;;;;;;;7.45;4.60;;;12.00;64.20;;;;;;2100258;28;20051;-76
2021/01/20 04:19:40;;;;;;;5.88;3.70;;;12.10;62.30;;;;;;2099665;28;20049;-78
2021/01/20 04:20:43;;;;;;;8.63;3.40;;;12.40;64.30;;;;;;2091161;28;20053;-78
2021/01/20 04:21:45;;;;;;;7.35;4.00;;;12.40;65.80;;;;;;2091166;28;20052;-77
2021/01/20 04:22:47;;;;;;;8.00;4.45;;;12.20;64.70;;;;;;2091125;28;20056;-77
2021/01/20 04:23:49;;;;;;;8.52;4.63;;;12.20;64.60;;;;;;2098989;28;20056;-77
2021/01/20 04:24:50;;;;;;;;;;;12.20;63.90;;;;;;2099550;28;20409;-77
2021/01/20 04:25:52;;;;;;;9.43;5.30;;;12.30;64.40;;;;;;2099034;28;19983;-78
2021/01/20 04:26:53;;;;;;;10.77;6.20;;;12.40;62.70;;;;;;2091565;28;20044;-78
2021/01/20 04:27:55;;;;;;;10.90;5.68;;;12.30;62.30;;;;;;2091633;28;20077;-78
2021/01/20 04:28:57;;;;;;;7.90;4.63;;;12.00;61.50;;;;;;2091326;28;20061;-76
2021/01/20 04:29:58;;;;;;;13.30;5.68;;;12.00;65.00;;;;;;2098936;28;20303;-78
2021/01/20 04:31:03;;;;;;;9.50;5.07;;;12.10;62.30;;;;;;2098832;28;20048;-76
2021/01/20 04:32:05;;;;;;;6.05;3.88;;;12.00;64.00;;;;;;2089785;28;20119;-75
2021/01/20 04:33:08;;;;;;;7.30;4.20;;;12.10;65.80;;;;;;2097243;28;20045;-78
2021/01/20 04:34:09;;;;;;;;;;;11.90;62.50;;;;;;2098506;28;20499;-77
2021/01/20 04:35:12;;;;;;;6.57;3.63;;;11.60;61.90;;;;;;2096865;28;20020;-77
2021/01/20 04:36:14;;;;;;;13.77;3.33;;;12.00;64.40;;;;;;2096998;28;20052;-78
2021/01/20 04:37:15;;;;;;;5.70;3.78;;;12.00;62.80;;;;;;2096696;28;20044;-76
2021/01/20 04:38:17;;;;;;;5.47;3.10;;;11.60;63.90;;;;;;2097114;28;20051;-77
2021/01/20 04:39:19;;;;;;;6.72;3.85;;;12.00;65.20;;;;;;2105072;28;20053;-78
2021/01/20 04:40:21;;;;;;;5.15;3.05;;;12.20;62.80;;;;;;2096567;28;20223;-78
2021/01/20 04:41:22;;;;;;;5.22;2.90;;;12.30;62.10;;;;;;2096669;28;20052;-78
2021/01/20 04:42:24;;;;;;;3.70;2.47;;;12.10;62.90;;;;;;2096774;28;20040;-76
2021/01/20 04:43:26;;;;;;;4.95;2.90;;;11.90;63.30;;;;;;2096926;28;20052;-78
2021/01/20 04:44:28;;;;;;;4.90;2.60;;;12.10;65.20;;;;;;2105180;28;20047;-76
2021/01/20 04:45:30;;;;;;;5.72;2.88;;;12.30;62.40;;;;;;2105087;28;20135;-77
2021/01/20 04:46:34;;;;;;;6.20;2.83;;;12.00;62.80;;;;;;2105105;28;20425;-76
2021/01/20 04:47:38;;;;;;;7.47;2.83;;;11.50;63.10;;;;;;2104382;28;20048;-77
2021/01/20 04:48:41;;;;;;;7.80;3.38;;;11.40;64.20;;;;;;2096736;28;20055;-78
2021/01/20 04:49:49;;;;;;;3.60;2.45;;;11.30;66.30;;;;;;2096765;28;20045;-78
2021/01/20 04:50:52;;;;;;;6.22;2.60;;;11.40;64.70;;;;;;2105456;28;20060;-78
2021/01/20 04:51:56;;;;;;;6.25;3.17;;;11.20;63.00;;;;;;2096706;28;20045;-77
2021/01/20 04:53:00;;;;;;;6.05;2.70;;;11.20;67.20;;;;;;2097112;28;20060;-76
2021/01/20 04:54:05;;;;;;;4.47;2.50;;;11.30;66.20;;;;;;2098314;28;20052;-78
2021/01/20 04:55:08;;;;;;;4.65;2.30;;;11.30;64.40;;;;;;2098509;28;20045;-76
2021/01/20 04:56:13;;;;;;;4.10;2.50;;;11.20;63.60;;;;;;2098836;28;20412;-77
2021/01/20 04:57:15;;;;;;;5.63;2.50;;;11.40;63.60;;;;;;2099141;28;20040;-78
2021/01/20 04:58:16;;;;;;;;;;;11.50;68.80;;;;;;2107236;28;20484;-77
2021/01/20 04:59:18;;;;;;;6.72;2.40;;;11.60;66.60;;;;;;2106529;28;20381;-78
2021/01/20 05:00:21;;;;;;;3.70;2.63;;;11.80;66.10;;;;;;2098535;28;20037;-77
2021/01/20 05:01:23;;;;;;;3.97;2.30;;;11.70;64.70;;;;;;2098621;28;20049;-77
2021/01/20 05:02:28;;;;;;;4.28;2.30;;;11.80;64.00;;;;;;2097881;28;20052;-78
2021/01/20 05:03:31;;;;;;;4.57;2.60;;;11.80;62.50;;;;;;2098790;28;20048;-76
2021/01/20 05:04:33;;;;;;;3.20;2.10;;;11.70;64.70;;;;;;2106028;28;20048;-77
2021/01/20 05:05:36;;;;;;;5.55;2.67;;;11.70;63.20;;;;;;2106479;28;20052;-78
2021/01/20 05:06:38;;;;;;;4.18;2.42;;;11.80;64.60;;;;;;2098077;28;20051;-77
2021/01/20 05:07:40;;;;;;;3.17;2.13;;;12.40;63.90;;;;;;2097875;28;20044;-75
2021/01/20 05:08:42;;;;;;;5.90;2.65;;;12.40;63.10;;;;;;2098312;28;20206;-78
2021/01/20 05:09:45;;;;;;;4.72;2.40;;;12.10;60.50;;;;;;2098192;28;20052;-76
2021/01/20 05:10:47;;;;;;;2.80;1.90;;;12.20;62.10;;;;;;2097941;28;20107;-76
2021/01/20 05:11:49;;;;;;;3.60;2.20;;;12.10;61.90;;;;;;2098276;28;20229;-76
2021/01/20 05:12:50;;;;;;;4.90;2.35;;;11.80;61.60;;;;;;2098340;28;20148;-76
2021/01/20 05:13:52;;;;;;;4.35;2.35;;;12.20;67.50;;;;;;2098337;28;20048;-76
2021/01/20 05:14:54;;;;;;;5.50;2.67;;;12.10;62.10;;;;;;2098043;28;20309;-76
2021/01/20 05:15:56;;;;;;;3.65;2.10;;;12.20;62.40;;;;;;2091170;28;20061;-78
2021/01/20 05:17:06;;;;;;;;;;;12.80;65.80;;;;;;2100414;28;20389;-77
2021/01/20 05:18:08;;;;;;;6.20;2.28;;;12.50;61.10;;;;;;2098535;28;20058;-77
2021/01/20 05:19:10;;;;;;;5.20;2.45;;;12.40;59.20;;;;;;2098098;28;20052;-76
2021/01/20 05:20:26;;;;;;;5.07;2.28;;;12.40;59.60;;;;;;2098508;28;20052;-77
2021/01/20 05:21:28;;;;;;;4.30;2.47;;;12.10;60.50;;;;;;2104234;28;20052;-75
2021/01/20 05:22:31;;;;;;;;;;;11.80;60.30;;;;;;2099057;28;20500;-77
2021/01/20 05:23:34;;;;;;;3.45;2.28;;;12.00;61.80;;;;;;2098049;28;19927;-77
2021/01/20 05:24:37;;;;;;;3.80;2.30;;;12.00;62.00;;;;;;2098738;28;20053;-78
2021/01/20 05:25:40;;;;;;;6.90;2.25;;;12.30;61.80;;;;;;2105846;28;20443;-76
2021/01/20 05:26:44;;;;;;;5.93;2.45;;;12.20;60.80;;;;;;2098752;28;20044;-78
2021/01/20 05:27:46;;;;;;;5.78;2.25;;;12.00;61.60;;;;;;2106303;28;20098;-77
2021/01/20 05:28:47;;;;;;;5.75;2.58;;;12.00;60.70;;;;;;2098247;28;20048;-78
2021/01/20 05:29:59;;;;;;;5.05;2.45;;;11.90;62.10;;;;;;2098123;28;20059;-78